Time;durP1;ratioP1;P1;durP2;ratioP2;P2;SDS_P1;SDS_P2;PMS_P1;PMS_P2;Temp;Humidity;BMP_temperature;BMP_pressure;BME280_temperature;BME280_humidity;BME280_pressure;Samples;Min_cycle;Max_cycle;Signal;HPM_P1;HPM_P2
2021/01/25 00:00:48;;;;;;;8.10;3.67;;;;;;;;;;4398036;32;20331;-56
2021/01/25 00:03:13;;;;;;;7.07;3.00;;;;;;;;;;4397732;32;20366;-57
2021/01/25 00:05:39;;;;;;;11.50;2.87;;;;;;;;;;4400878;32;20375;-57
2021/01/25 00:08:04;;;;;;;9.47;2.83;;;;;;;;;;4396802;32;20225;-55
2021/01/25 00:10:30;;;;;;;6.67;2.67;;;;;;;;;;4398737;32;20244;-55
2021/01/25 00:12:56;;;;;;;9.10;3.10;;;;;;;;;;4382862;32;20233;-57
2021/01/25 00:15:22;;;;;;;4.67;3.40;;;;;;;;;;4400293;32;20214;-63
2021/01/25 00:17:47;;;;;;;14.60;7.27;;;;;;;;;;4398852;32;20343;-59
2021/01/25 00:20:14;;;;;;;7.80;2.90;;;;;;;;;;4400298;32;20587;-58
2021/01/25 00:22:39;;;;;;;4.67;2.30;;;;;;;;;;4397059;32;20357;-59
2021/01/25 00:25:05;;;;;;;7.83;3.90;;;;;;;;;;4386163;32;20363;-59
2021/01/25 00:27:31;;;;;;;19.17;8.97;;;;;;;;;;4400867;32;20568;-59
2021/01/25 00:29:56;;;;;;;5.17;2.33;;;;;;;;;;4399598;32;20263;-58
2021/01/25 00:32:22;;;;;;;5.93;2.20;;;;;;;;;;4399700;32;20225;-58
2021/01/25 00:34:47;;;;;;;4.37;1.93;;;;;;;;;;4400391;32;20684;-58
2021/01/25 00:37:13;;;;;;;4.20;2.17;;;;;;;;;;4386385;32;20260;-58
2021/01/25 00:39:39;;;;;;;4.53;2.33;;;;;;;;;;4395396;32;20244;-58
2021/01/25 00:42:04;;;;;;;9.00;3.97;;;;;;;;;;4398370;32;20228;-58
2021/01/25 00:44:30;;;;;;;4.67;2.43;;;;;;;;;;4396004;32;20682;-59
2021/01/25 00:46:56;;;;;;;2.17;1.73;;;;;;;;;;4399939;32;20221;-58
2021/01/25 00:49:21;;;;;;;2.63;2.10;;;;;;;;;;4396553;32;20352;-58
2021/01/25 00:51:47;;;;;;;5.77;2.30;;;;;;;;;;4397174;32;20283;-58
2021/01/25 00:54:12;;;;;;;3.47;1.90;;;;;;;;;;4382623;32;20666;-56
2021/01/25 00:56:38;;;;;;;1.97;1.60;;;;;;;;;;4398445;32;20340;-57
2021/01/25 00:59:04;;;;;;;2.23;1.50;;;;;;;;;;4401676;32;20221;-57
2021/01/25 01:01:29;;;;;;;4.60;1.80;;;;;;;;;;4397367;32;20379;-57
2021/01/25 01:03:55;;;;;;;4.97;1.80;;;;;;;;;;4398551;32;20240;-58
2021/01/25 01:06:21;;;;;;;4.33;1.80;;;;;;;;;;4395713;32;20256;-57
2021/01/25 01:08:46;;;;;;;3.73;1.90;;;;;;;;;;4383517;32;20308;-57
2021/01/25 01:11:12;;;;;;;2.40;1.37;;;;;;;;;;4397945;32;20983;-56
2021/01/25 01:13:38;;;;;;;3.30;2.17;;;;;;;;;;4398827;32;20277;-57
2021/01/25 01:16:04;;;;;;;7.17;2.23;;;;;;;;;;4399101;32;20251;-57
2021/01/25 01:18:30;;;;;;;8.60;2.80;;;;;;;;;;4400546;32;20285;-57
2021/01/25 01:20:55;;;;;;;5.57;2.73;;;;;;;;;;4396658;32;20288;-56
2021/01/25 01:23:21;;;;;;;7.60;3.70;;;;;;;;;;4397827;32;20740;-57
2021/01/25 01:25:46;;;;;;;3.30;2.03;;;;;;;;;;4399823;32;20706;-58
2021/01/25 01:28:12;;;;;;;3.17;1.90;;;;;;;;;;4400287;32;20567;-57
2021/01/25 01:30:38;;;;;;;1.40;1.30;;;;;;;;;;4400246;32;20256;-56
2021/01/25 01:33:03;;;;;;;1.60;1.27;;;;;;;;;;4397977;32;20602;-57
2021/01/25 01:35:29;;;;;;;1.90;1.40;;;;;;;;;;4399151;32;20417;-58
2021/01/25 01:37:56;;;;;;;6.67;1.53;;;;;;;;;;4398885;32;20294;-57
2021/01/25 01:40:21;;;;;;;3.77;1.70;;;;;;;;;;4396503;32;20390;-57
2021/01/25 01:42:46;;;;;;;2.27;1.33;;;;;;;;;;4398068;32;20697;-57
2021/01/25 01:45:12;;;;;;;1.80;1.50;;;;;;;;;;4395534;32;20263;-59
2021/01/25 01:47:41;;;;;;;4.43;2.07;;;;;;;;;;4398016;32;20296;-58
2021/01/25 01:50:09;;;;;;;3.03;1.80;;;;;;;;;;4399841;32;20398;-58
2021/01/25 01:52:35;;;;;;;3.43;1.80;;;;;;;;;;4396376;32;20288;-57
2021/01/25 01:55:01;;;;;;;3.60;1.87;;;;;;;;;;4396822;32;20331;-57
2021/01/25 01:57:29;;;;;;;2.93;1.43;;;;;;;;;;4397952;32;20572;-57
2021/01/25 01:59:54;;;;;;;1.67;1.13;;;;;;;;;;4385800;32;20550;-58
2021/01/25 02:02:20;;;;;;;2.17;1.60;;;;;;;;;;4396504;32;20267;-58
2021/01/25 02:04:46;;;;;;;2.43;1.30;;;;;;;;;;4396075;32;20564;-58
2021/01/25 02:07:12;;;;;;;1.40;1.30;;;;;;;;;;4400272;32;20230;-57
2021/01/25 02:09:41;;;;;;;2.43;1.70;;;;;;;;;;4399681;32;20352;-57
2021/01/25 02:12:09;;;;;;;1.87;1.33;;;;;;;;;;4395062;32;20335;-56
2021/01/25 02:14:35;;;;;;;5.60;1.53;;;;;;;;;;4383479;32;20298;-57
2021/01/25 02:17:01;;;;;;;0.93;0.87;;;;;;;;;;4398114;32;20216;-56
2021/01/25 02:19:38;;;;;;;1.63;1.20;;;;;;;;;;4400824;32;20381;-58
2021/01/25 02:22:36;;;;;;;1.57;1.20;;;;;;;;;;4396384;32;20525;-57
2021/01/25 02:25:01;;;;;;;3.33;1.70;;;;;;;;;;4381131;32;20629;-57
2021/01/25 02:27:36;;;;;;;4.57;2.03;;;;;;;;;;4396572;32;20268;-57
2021/01/25 02:30:04;;;;;;;1.40;1.30;;;;;;;;;;4399370;32;20247;-62
2021/01/25 02:32:31;;;;;;;2.43;1.60;;;;;;;;;;4381632;32;20329;-61
2021/01/25 02:35:00;;;;;;;2.23;1.57;;;;;;;;;;4398603;32;20265;-61
2021/01/25 02:37:27;;;;;;;5.20;1.73;;;;;;;;;;4397632;32;20276;-61
2021/01/25 02:39:55;;;;;;;3.43;1.50;;;;;;;;;;4398579;32;20309;-61
2021/01/25 02:42:22;;;;;;;4.93;1.73;;;;;;;;;;4399547;32;20260;-62
2021/01/25 02:44:49;;;;;;;3.73;2.33;;;;;;;;;;4399641;32;20235;-64
2021/01/25 02:47:17;;;;;;;5.73;3.50;;;;;;;;;;4397194;32;20682;-62
2021/01/25 02:49:44;;;;;;;7.67;3.83;;;;;;;;;;4403045;32;20258;-62
2021/01/25 02:52:12;;;;;;;6.57;2.57;;;;;;;;;;4397745;32;20304;-62
2021/01/25 02:54:38;;;;;;;5.93;2.77;;;;;;;;;;4400588;32;20233;-62
2021/01/25 02:57:03;;;;;;;3.97;1.90;;;;;;;;;;4382740;32;20225;-61
2021/01/25 02:59:29;;;;;;;3.70;2.00;;;;;;;;;;4399566;32;20682;-61
2021/01/25 03:01:55;;;;;;;2.30;1.73;;;;;;;;;;4396657;32;20402;-62
2021/01/25 03:04:21;;;;;;;1.67;1.30;;;;;;;;;;4396597;32;20285;-61
2021/01/25 03:06:48;;;;;;;1.03;0.90;;;;;;;;;;4394876;32;20272;-61
2021/01/25 03:09:13;;;;;;;3.43;1.77;;;;;;;;;;4394908;32;20221;-62
2021/01/25 03:11:42;;;;;;;1.80;1.33;;;;;;;;;;4395641;32;20384;-61
2021/01/25 03:14:11;;;;;;;2.10;1.30;;;;;;;;;;4382669;32;20721;-63
2021/01/25 03:16:37;;;;;;;1.27;1.13;;;;;;;;;;4395139;32;20366;-62
2021/01/25 03:19:05;;;;;;;3.40;1.43;;;;;;;;;;4399127;32;20297;-61
2021/01/25 03:21:35;;;;;;;4.93;2.50;;;;;;;;;;4396736;32;20372;-57
2021/01/25 03:24:04;;;;;;;3.83;2.23;;;;;;;;;;4398031;32;20233;-56
2021/01/25 03:26:29;;;;;;;7.57;2.97;;;;;;;;;;4379899;32;20768;-57
2021/01/25 03:28:55;;;;;;;6.30;3.10;;;;;;;;;;4399017;32;20312;-59
2021/01/25 03:31:21;;;;;;;5.40;2.47;;;;;;;;;;4397830;32;20226;-57
2021/01/25 03:33:47;;;;;;;4.40;2.23;;;;;;;;;;4385808;32;20343;-56
2021/01/25 03:36:12;;;;;;;4.23;2.33;;;;;;;;;;4398996;32;20233;-56
2021/01/25 03:38:38;;;;;;;5.73;3.53;;;;;;;;;;4399109;32;20715;-57
2021/01/25 03:41:03;;;;;;;7.50;5.90;;;;;;;;;;4399340;32;20700;-57
2021/01/25 03:43:29;;;;;;;9.23;6.00;;;;;;;;;;4399518;32;20665;-57
2021/01/25 03:45:55;;;;;;;11.67;5.93;;;;;;;;;;4398319;32;20300;-56
2021/01/25 03:48:21;;;;;;;8.83;5.83;;;;;;;;;;4399501;32;20225;-56
2021/01/25 03:50:46;;;;;;;8.53;5.73;;;;;;;;;;4384302;32;20222;-57
2021/01/25 03:53:12;;;;;;;8.67;5.43;;;;;;;;;;4400145;32;20706;-56
2021/01/25 03:55:38;;;;;;;10.17;6.17;;;;;;;;;;4403431;32;20280;-58
2021/01/25 03:58:03;;;;;;;12.47;6.27;;;;;;;;;;4386447;32;20684;-57
2021/01/25 04:00:29;;;;;;;11.33;7.17;;;;;;;;;;4400688;32;20374;-59
2021/01/25 04:02:55;;;;;;;11.00;6.20;;;;;;;;;;4402040;32;20832;-59
2021/01/25 04:05:21;;;;;;;13.53;5.50;;;;;;;;;;4402509;32;20285;-60
2021/01/25 04:07:47;;;;;;;11.10;6.50;;;;;;;;;;4402341;32;20240;-60
2021/01/25 04:10:13;;;;;;;7.60;5.33;;;;;;;;;;4403909;32;20231;-61
2021/01/25 04:12:38;;;;;;;8.40;5.37;;;;;;;;;;4401168;32;20556;-62
2021/01/25 04:15:06;;;;;;;7.37;5.10;;;;;;;;;;4385560;32;20555;-62
2021/01/25 04:17:31;;;;;;;10.60;6.07;;;;;;;;;;4384833;32;20267;-63
2021/01/25 04:19:57;;;;;;;8.77;4.67;;;;;;;;;;4381160;32;20363;-58
2021/01/25 04:22:22;;;;;;;10.30;5.13;;;;;;;;;;4387255;32;20862;-56
2021/01/25 04:24:48;;;;;;;8.07;5.53;;;;;;;;;;4398453;32;20490;-58
2021/01/25 04:27:14;;;;;;;14.00;7.00;;;;;;;;;;4399491;32;20290;-56
2021/01/25 04:29:42;;;;;;;16.30;8.53;;;;;;;;;;4399798;32;20646;-56
2021/01/25 04:32:11;;;;;;;16.53;10.60;;;;;;;;;;4399503;32;20359;-57
2021/01/25 04:34:37;;;;;;;21.53;10.97;;;;;;;;;;4386314;32;20298;-57
2021/01/25 04:37:04;;;;;;;16.97;9.50;;;;;;;;;;4401563;32;20302;-57
2021/01/25 04:39:29;;;;;;;16.00;8.67;;;;;;;;;;4400823;32;20278;-57
2021/01/25 04:41:55;;;;;;;16.73;9.80;;;;;;;;;;4399806;32;20431;-58
2021/01/25 04:44:22;;;;;;;30.77;15.97;;;;;;;;;;4384102;32;20261;-57
2021/01/25 04:46:48;;;;;;;19.30;11.37;;;;;;;;;;4395677;32;20338;-56
2021/01/25 04:49:14;;;;;;;21.73;11.37;;;;;;;;;;4400900;32;20411;-59
2021/01/25 04:51:41;;;;;;;26.33;14.00;;;;;;;;;;4386853;32;20543;-57
2021/01/25 04:54:08;;;;;;;22.60;15.60;;;;;;;;;;4400249;32;20410;-58
2021/01/25 04:56:35;;;;;;;33.40;18.50;;;;;;;;;;4386236;32;20344;-59
2021/01/25 04:59:01;;;;;;;32.53;21.00;;;;;;;;;;4400137;32;20337;-57
2021/01/25 05:01:27;;;;;;;34.50;22.03;;;;;;;;;;4400612;32;20221;-58
2021/01/25 05:03:52;;;;;;;34.57;21.43;;;;;;;;;;4384283;32;20363;-59
2021/01/25 05:06:19;;;;;;;37.53;21.70;;;;;;;;;;4400924;32;20395;-58
2021/01/25 05:08:45;;;;;;;26.50;19.53;;;;;;;;;;4400066;32;20325;-58
2021/01/25 05:11:14;;;;;;;23.93;15.60;;;;;;;;;;4401387;32;20374;-63
2021/01/25 05:13:40;;;;;;;16.37;12.13;;;;;;;;;;4398051;32;20378;-63
2021/01/25 05:16:19;;;;;;;19.37;12.27;;;;;;;;;;4400349;32;20237;-62
2021/01/25 05:18:46;;;;;;;18.73;12.23;;;;;;;;;;4402105;32;20294;-57
2021/01/25 05:21:12;;;;;;;23.23;13.77;;;;;;;;;;4398713;32;20393;-58
2021/01/25 05:23:39;;;;;;;52.13;31.97;;;;;;;;;;4401653;32;20316;-61
2021/01/25 05:26:06;;;;;;;27.83;19.23;;;;;;;;;;4399413;32;20236;-58
2021/01/25 05:28:42;;;;;;;25.10;16.83;;;;;;;;;;4402257;32;20205;-58
2021/01/25 05:31:24;;;;;;;24.27;16.90;;;;;;;;;;4401383;32;20867;-58
2021/01/25 05:33:50;;;;;;;33.43;23.53;;;;;;;;;;4401464;32;20308;-58
2021/01/25 05:36:26;;;;;;;33.90;23.87;;;;;;;;;;4401455;32;20251;-58
2021/01/25 05:38:53;;;;;;;30.87;21.07;;;;;;;;;;4385260;32;20237;-57
2021/01/25 05:41:20;;;;;;;42.80;25.00;;;;;;;;;;4385022;32;20597;-57
2021/01/25 05:43:46;;;;;;;36.80;26.23;;;;;;;;;;4399021;32;20214;-56
2021/01/25 05:46:13;;;;;;;38.27;24.37;;;;;;;;;;4400082;32;20290;-58
2021/01/25 05:48:40;;;;;;;39.73;26.13;;;;;;;;;;4399565;32;20681;-58
2021/01/25 05:51:16;;;;;;;61.50;38.13;;;;;;;;;;4383788;32;20251;-58
2021/01/25 05:53:43;;;;;;;53.30;36.47;;;;;;;;;;4400269;32;20244;-57
2021/01/25 05:56:11;;;;;;;63.07;39.73;;;;;;;;;;4382964;32;20261;-56
2021/01/25 05:58:37;;;;;;;62.87;40.17;;;;;;;;;;4381433;32;20269;-56
2021/01/25 06:01:04;;;;;;;62.80;38.13;;;;;;;;;;4394847;32;20376;-57
2021/01/25 06:03:36;;;;;;;68.90;41.50;;;;;;;;;;4399242;32;20232;-57
2021/01/25 06:06:05;;;;;;;80.37;44.60;;;;;;;;;;4378684;32;20225;-57
2021/01/25 06:08:41;;;;;;;71.93;39.70;;;;;;;;;;4399205;32;20284;-59
2021/01/25 06:11:26;;;;;;;69.20;38.80;;;;;;;;;;4398595;32;20315;-59
2021/01/25 06:14:24;;;;;;;64.17;38.90;;;;;;;;;;4393433;32;20655;-61
2021/01/25 06:16:51;;;;;;;90.73;50.83;;;;;;;;;;4387688;32;20342;-61
2021/01/25 06:19:22;;;;;;;88.67;46.67;;;;;;;;;;4399565;32;20221;-60
2021/01/25 06:21:48;;;;;;;82.77;46.80;;;;;;;;;;4384338;32;20360;-60
2021/01/25 06:24:16;;;;;;;80.40;49.37;;;;;;;;;;4401255;32;20720;-60
2021/01/25 06:26:45;;;;;;;92.37;52.03;;;;;;;;;;4402353;32;20213;-62
2021/01/25 06:29:14;;;;;;;97.17;53.93;;;;;;;;;;4399324;32;20408;-61
2021/01/25 06:31:40;;;;;;;102.00;55.70;;;;;;;;;;4379438;32;20275;-61
2021/01/25 06:34:10;;;;;;;95.40;55.80;;;;;;;;;;4396873;32;20308;-62
2021/01/25 06:36:41;;;;;;;64.47;40.50;;;;;;;;;;4398472;32;20946;-62
2021/01/25 06:39:07;;;;;;;48.60;31.00;;;;;;;;;;4395416;32;20310;-61
2021/01/25 06:41:38;;;;;;;45.33;30.40;;;;;;;;;;4398204;32;20221;-61
2021/01/25 06:44:06;;;;;;;50.67;32.77;;;;;;;;;;4399178;32;20689;-61
2021/01/25 06:46:34;;;;;;;42.63;26.27;;;;;;;;;;4396148;32;20233;-62
2021/01/25 06:49:00;;;;;;;46.00;27.97;;;;;;;;;;4397399;32;20394;-63
2021/01/25 06:51:27;;;;;;;41.40;26.33;;;;;;;;;;4397478;32;20280;-59
2021/01/25 06:53:53;;;;;;;38.93;23.27;;;;;;;;;;4397144;32;20299;-58
2021/01/25 06:56:19;;;;;;;36.43;23.33;;;;;;;;;;4385521;32;20339;-58
2021/01/25 06:58:46;;;;;;;42.80;26.60;;;;;;;;;;4397159;32;21643;-59
2021/01/25 07:01:12;;;;;;;42.70;26.70;;;;;;;;;;4398181;32;20288;-59
2021/01/25 07:03:56;;;;;;;48.50;27.13;;;;;;;;;;4382773;32;20294;-60
2021/01/25 07:06:34;;;;;;;42.47;29.03;;;;;;;;;;4399021;32;20228;-56
2021/01/25 07:09:04;;;;;;;81.47;48.20;;;;;;;;;;4401385;32;20246;-56
2021/01/25 07:11:29;;;;;;;71.23;46.43;;;;;;;;;;4399450;32;20268;-56
2021/01/25 07:13:56;;;;;;;76.53;52.93;;;;;;;;;;4393616;32;20225;-55
2021/01/25 07:16:23;;;;;;;125.73;74.00;;;;;;;;;;4398541;32;20217;-60
2021/01/25 07:18:51;;;;;;;90.23;57.90;;;;;;;;;;4399601;32;20409;-56
2021/01/25 07:21:18;;;;;;;45.93;31.20;;;;;;;;;;4395692;32;20217;-54
2021/01/25 07:23:45;;;;;;;68.90;45.20;;;;;;;;;;4403903;32;20450;-57
2021/01/25 07:26:13;;;;;;;67.10;42.53;;;;;;;;;;4404728;32;20251;-57
2021/01/25 07:28:40;;;;;;;73.07;44.80;;;;;;;;;;4385280;32;20340;-56
2021/01/25 07:31:06;;;;;;;66.67;41.97;;;;;;;;;;4402587;32;20634;-57
2021/01/25 07:33:31;;;;;;;69.70;40.20;;;;;;;;;;4403299;32;20253;-58
2021/01/25 07:35:58;;;;;;;66.13;44.17;;;;;;;;;;4403760;32;20296;-58
2021/01/25 07:38:28;;;;;;;68.50;39.57;;;;;;;;;;4382652;32;20366;-57
2021/01/25 07:40:58;;;;;;;74.43;47.33;;;;;;;;;;4404261;32;20540;-57
2021/01/25 07:43:28;;;;;;;76.23;45.87;;;;;;;;;;4386698;32;20245;-57
2021/01/25 07:46:04;;;;;;;64.97;43.30;;;;;;;;;;4402752;32;20272;-57
2021/01/25 07:48:30;;;;;;;79.97;48.33;;;;;;;;;;4398853;32;20298;-56
2021/01/25 07:50:58;;;;;;;83.63;53.90;;;;;;;;;;4387190;32;20332;-57
2021/01/25 07:53:25;;;;;;;87.10;53.40;;;;;;;;;;4400619;32;20225;-56
2021/01/25 07:55:50;;;;;;;71.53;45.00;;;;;;;;;;4400574;32;20748;-58
2021/01/25 07:58:16;;;;;;;50.23;31.30;;;;;;;;;;4399178;32;20217;-57
2021/01/25 08:00:42;;;;;;;53.83;32.97;;;;;;;;;;4400807;32;20653;-58
2021/01/25 08:03:14;;;;;;;58.17;32.73;;;;;;;;;;4389846;32;20316;-58
2021/01/25 08:05:41;;;;;;;34.73;21.80;;;;;;;;;;4400868;32;20336;-55
2021/01/25 08:08:10;;;;;;;38.93;23.07;;;;;;;;;;4399425;32;20298;-55
2021/01/25 08:10:37;;;;;;;12.30;8.73;;;;;;;;;;4400105;32;20565;-56
2021/01/25 08:13:15;;;;;;;5.97;4.07;;;;;;;;;;4382453;32;20643;-55
2021/01/25 08:15:58;;;;;;;9.53;4.67;;;;;;;;;;4384161;32;20221;-56
2021/01/25 08:18:30;;;;;;;8.00;5.50;;;;;;;;;;4398835;32;20333;-56
2021/01/25 08:20:58;;;;;;;17.00;3.73;;;;;;;;;;4400675;32;20213;-55
2021/01/25 08:23:26;;;;;;;4.87;2.27;;;;;;;;;;4398036;32;20330;-58
2021/01/25 08:25:56;;;;;;;3.77;1.80;;;;;;;;;;4397671;32;20586;-59
2021/01/25 08:28:24;;;;;;;6.27;2.00;;;;;;;;;;4386490;32;20256;-61
2021/01/25 08:30:51;;;;;;;5.60;2.87;;;;;;;;;;4401969;32;20285;-60
2021/01/25 08:33:31;;;;;;;6.07;2.50;;;;;;;;;;4400577;32;20620;-61
2021/01/25 08:35:59;;;;;;;4.27;2.73;;;;;;;;;;4399287;32;20271;-60
2021/01/25 08:38:45;;;;;;;6.83;2.57;;;;;;;;;;4386604;32;20230;-61
2021/01/25 08:41:21;;;;;;;13.00;4.20;;;;;;;;;;4402300;32;20270;-60
2021/01/25 08:44:01;;;;;;;6.60;4.10;;;;;;;;;;4400082;32;20209;-61
2021/01/25 08:46:38;;;;;;;7.90;4.10;;;;;;;;;;4380526;32;20286;-55
2021/01/25 08:49:34;;;;;;;6.60;3.73;;;;;;;;;;4398722;32;20209;-55
2021/01/25 08:52:03;;;;;;;8.07;4.23;;;;;;;;;;4393131;32;20679;-56
2021/01/25 08:54:31;;;;;;;17.77;5.40;;;;;;;;;;4400993;32;20341;-56
2021/01/25 08:56:58;;;;;;;5.50;2.80;;;;;;;;;;4398234;32;20221;-56
2021/01/25 08:59:30;;;;;;;31.70;10.53;;;;;;;;;;4401274;32;20239;-55
2021/01/25 09:01:56;;;;;;;8.73;3.93;;;;;;;;;;4398313;32;20387;-56
2021/01/25 09:04:22;;;;;;;5.47;3.37;;;;;;;;;;4402503;32;20246;-57
2021/01/25 09:06:50;;;;;;;7.87;4.33;;;;;;;;;;4400321;32;20543;-58
2021/01/25 09:09:18;;;;;;;11.73;4.77;;;;;;;;;;4396389;32;20218;-58
2021/01/25 09:11:45;;;;;;;3.90;2.63;;;;;;;;;;4400097;32;20343;-59
2021/01/25 09:14:12;;;;;;;6.67;4.17;;;;;;;;;;4392726;32;20388;-56
2021/01/25 09:16:37;;;;;;;6.20;2.97;;;;;;;;;;4396573;32;20806;-57
2021/01/25 09:19:04;;;;;;;7.57;4.07;;;;;;;;;;4390633;32;20281;-59
2021/01/25 09:21:29;;;;;;;9.60;5.60;;;;;;;;;;4388036;32;20917;-58
2021/01/25 09:23:55;;;;;;;6.93;3.97;;;;;;;;;;4397561;32;20265;-59
2021/01/25 09:26:20;;;;;;;9.77;5.53;;;;;;;;;;4392172;32;20343;-59
2021/01/25 09:28:46;;;;;;;6.43;3.87;;;;;;;;;;4393651;32;20309;-59
2021/01/25 09:31:14;;;;;;;4.73;2.67;;;;;;;;;;4398197;32;20237;-57
2021/01/25 09:33:40;;;;;;;4.57;3.40;;;;;;;;;;4396594;32;20887;-58
2021/01/25 09:36:05;;;;;;;9.43;5.47;;;;;;;;;;4395426;32;20255;-59
2021/01/25 09:38:31;;;;;;;8.57;4.80;;;;;;;;;;4399124;32;20647;-59
2021/01/25 09:40:56;;;;;;;19.23;9.73;;;;;;;;;;4398488;32;20728;-60
2021/01/25 09:43:23;;;;;;;6.43;4.97;;;;;;;;;;4393432;32;20353;-60
2021/01/25 09:45:49;;;;;;;5.97;3.80;;;;;;;;;;4380462;32;20408;-60
2021/01/25 09:48:15;;;;;;;9.07;3.27;;;;;;;;;;4394771;32;20296;-61
2021/01/25 09:50:41;;;;;;;4.37;2.40;;;;;;;;;;4391915;32;20267;-61
2021/01/25 09:53:06;;;;;;;3.27;1.60;;;;;;;;;;4396214;32;20255;-60
2021/01/25 09:55:32;;;;;;;7.27;3.53;;;;;;;;;;4398012;32;20322;-62
2021/01/25 09:57:57;;;;;;;5.10;1.87;;;;;;;;;;4396669;32;20701;-61
2021/01/25 10:00:24;;;;;;;5.83;2.80;;;;;;;;;;4384430;32;20214;-60
2021/01/25 10:02:49;;;;;;;8.53;4.53;;;;;;;;;;4398450;32;20628;-60
2021/01/25 10:05:15;;;;;;;8.40;5.13;;;;;;;;;;4378345;32;20309;-60
2021/01/25 10:07:41;;;;;;;5.57;2.60;;;;;;;;;;4398242;32;20249;-60
2021/01/25 10:10:12;;;;;;;7.73;4.90;;;;;;;;;;4399477;32;20286;-59
2021/01/25 10:12:38;;;;;;;12.73;7.27;;;;;;;;;;4398637;32;20560;-61
2021/01/25 10:15:10;;;;;;;9.40;3.17;;;;;;;;;;4399237;32;20693;-60
2021/01/25 10:17:35;;;;;;;5.47;3.10;;;;;;;;;;4382918;32;20306;-60
2021/01/25 10:20:01;;;;;;;9.67;4.97;;;;;;;;;;4378347;32;20238;-60
2021/01/25 10:22:27;;;;;;;6.90;4.20;;;;;;;;;;4398021;32;20247;-60
2021/01/25 10:24:52;;;;;;;7.30;4.73;;;;;;;;;;4395020;32;20434;-60
2021/01/25 10:27:18;;;;;;;12.37;6.70;;;;;;;;;;4398873;32;20682;-61
2021/01/25 10:29:43;;;;;;;11.57;6.93;;;;;;;;;;4396862;32;20736;-60
2021/01/25 10:32:09;;;;;;;11.43;6.17;;;;;;;;;;4392134;32;20221;-60
2021/01/25 10:34:35;;;;;;;9.33;5.97;;;;;;;;;;4398436;32;20248;-59
2021/01/25 10:37:01;;;;;;;5.50;3.63;;;;;;;;;;4397368;32;20744;-60
2021/01/25 10:39:26;;;;;;;8.20;4.10;;;;;;;;;;4382565;32;20268;-61
2021/01/25 10:41:52;;;;;;;6.13;3.27;;;;;;;;;;4396204;32;20551;-60
2021/01/25 10:44:17;;;;;;;15.37;6.90;;;;;;;;;;4385718;32;20226;-60
2021/01/25 10:46:45;;;;;;;14.07;6.03;;;;;;;;;;4398885;32;20225;-61
2021/01/25 10:49:11;;;;;;;7.33;3.23;;;;;;;;;;4384616;32;20905;-60
2021/01/25 10:51:36;;;;;;;11.60;3.87;;;;;;;;;;4397736;32;20344;-61
2021/01/25 10:54:02;;;;;;;11.03;4.30;;;;;;;;;;4385082;32;20408;-59
2021/01/25 10:56:28;;;;;;;21.67;5.30;;;;;;;;;;4396807;32;20647;-63
2021/01/25 10:58:53;;;;;;;7.10;4.00;;;;;;;;;;4399457;32;20277;-66
2021/01/25 11:01:19;;;;;;;6.03;3.57;;;;;;;;;;4404254;32;20384;-60
2021/01/25 11:03:46;;;;;;;13.40;6.13;;;;;;;;;;4401128;32;20307;-61
2021/01/25 11:06:13;;;;;;;8.23;3.07;;;;;;;;;;4406471;32;20409;-61
2021/01/25 11:08:40;;;;;;;5.10;3.00;;;;;;;;;;4384076;32;20843;-61
2021/01/25 11:11:05;;;;;;;8.47;3.80;;;;;;;;;;4386474;32;20785;-62
2021/01/25 11:13:31;;;;;;;6.80;3.27;;;;;;;;;;4382607;32;20484;-61
2021/01/25 11:15:56;;;;;;;12.33;3.17;;;;;;;;;;4399692;32;20229;-62
2021/01/25 11:18:23;;;;;;;7.03;3.43;;;;;;;;;;4400399;32;20666;-64
2021/01/25 11:20:49;;;;;;;8.47;3.77;;;;;;;;;;4408326;32;20225;-63
2021/01/25 11:23:14;;;;;;;5.17;2.80;;;;;;;;;;4390124;32;20291;-62
2021/01/25 11:25:40;;;;;;;8.97;3.60;;;;;;;;;;4402425;32;20289;-66
2021/01/25 11:28:06;;;;;;;7.47;3.17;;;;;;;;;;4383385;32;20677;-63
2021/01/25 11:30:31;;;;;;;7.77;4.13;;;;;;;;;;4378498;32;20582;-62
2021/01/25 11:32:57;;;;;;;5.97;3.30;;;;;;;;;;4394874;32;20237;-61
2021/01/25 11:35:22;;;;;;;8.53;2.73;;;;;;;;;;4399361;32;20241;-62
2021/01/25 11:37:49;;;;;;;7.80;3.10;;;;;;;;;;4398627;32;20226;-62
2021/01/25 11:40:15;;;;;;;10.17;2.63;;;;;;;;;;4396694;32;20330;-64
2021/01/25 11:42:40;;;;;;;7.33;3.83;;;;;;;;;;4402179;32;20767;-63
2021/01/25 11:45:06;;;;;;;7.03;3.10;;;;;;;;;;4402308;32;20278;-64
2021/01/25 11:47:32;;;;;;;11.57;5.93;;;;;;;;;;4399377;32;20292;-63
2021/01/25 11:49:57;;;;;;;6.00;3.10;;;;;;;;;;4399946;32;20280;-64
2021/01/25 11:52:23;;;;;;;12.23;6.80;;;;;;;;;;4386442;32;20249;-64
2021/01/25 11:54:49;;;;;;;35.10;14.70;;;;;;;;;;4399982;32;20213;-64
2021/01/25 11:57:14;;;;;;;32.80;12.00;;;;;;;;;;4399886;32;20221;-64
2021/01/25 11:59:40;;;;;;;36.77;14.87;;;;;;;;;;4399321;32;20326;-65
2021/01/25 12:02:06;;;;;;;38.23;15.00;;;;;;;;;;4401014;32;20826;-63
2021/01/25 12:04:31;;;;;;;19.97;8.57;;;;;;;;;;4383280;32;20232;-63
2021/01/25 12:06:57;;;;;;;23.80;11.07;;;;;;;;;;4394746;32;20288;-63
2021/01/25 12:09:23;;;;;;;25.20;11.63;;;;;;;;;;4398382;32;20261;-63
2021/01/25 12:11:48;;;;;;;12.10;6.03;;;;;;;;;;4384228;32;20256;-66
2021/01/25 12:14:14;;;;;;;16.27;7.43;;;;;;;;;;4397788;32;20451;-64
2021/01/25 12:16:40;;;;;;;11.57;6.50;;;;;;;;;;4400034;32;20446;-64
2021/01/25 12:19:05;;;;;;;16.83;8.20;;;;;;;;;;4399446;32;20278;-64
2021/01/25 12:21:31;;;;;;;27.20;14.10;;;;;;;;;;4399467;32;20244;-64
2021/01/25 12:23:56;;;;;;;15.33;8.47;;;;;;;;;;4397916;32;20296;-64
2021/01/25 12:26:22;;;;;;;12.00;4.77;;;;;;;;;;4399735;32;20352;-64
2021/01/25 12:28:48;;;;;;;8.67;4.77;;;;;;;;;;4400862;32;20300;-63
2021/01/25 12:31:14;;;;;;;11.87;5.10;;;;;;;;;;4384861;32;20415;-64
2021/01/25 12:33:39;;;;;;;17.40;6.90;;;;;;;;;;4401619;32;20359;-63
2021/01/25 12:36:05;;;;;;;12.87;5.40;;;;;;;;;;4382441;32;20249;-63
2021/01/25 12:38:31;;;;;;;9.93;5.77;;;;;;;;;;4399729;32;20258;-63
2021/01/25 12:40:56;;;;;;;8.67;4.60;;;;;;;;;;4397929;32;20379;-65
2021/01/25 12:43:22;;;;;;;7.70;3.67;;;;;;;;;;4402146;32;20302;-65
2021/01/25 12:45:48;;;;;;;19.50;10.07;;;;;;;;;;4383633;32;20700;-64
2021/01/25 12:48:13;;;;;;;23.60;8.87;;;;;;;;;;4401409;32;20237;-64
2021/01/25 12:50:39;;;;;;;7.60;2.93;;;;;;;;;;4397555;32;20486;-64
2021/01/25 12:53:04;;;;;;;11.77;5.67;;;;;;;;;;4398713;32;20318;-66
2021/01/25 12:55:30;;;;;;;7.17;4.30;;;;;;;;;;4397782;32;20306;-67
2021/01/25 12:57:57;;;;;;;12.50;5.37;;;;;;;;;;4402915;32;20276;-65
2021/01/25 13:00:25;;;;;;;8.37;5.23;;;;;;;;;;4399410;32;20307;-63
2021/01/25 13:02:51;;;;;;;9.83;4.67;;;;;;;;;;4399370;32;20300;-64
2021/01/25 13:05:17;;;;;;;35.37;16.53;;;;;;;;;;4385684;32;20206;-64
2021/01/25 13:07:43;;;;;;;73.93;35.10;;;;;;;;;;4380544;32;20258;-59
2021/01/25 13:10:11;;;;;;;15.63;7.30;;;;;;;;;;4399273;32;20294;-58
2021/01/25 13:12:37;;;;;;;8.67;4.67;;;;;;;;;;4392808;32;20241;-59
2021/01/25 13:15:11;;;;;;;7.97;4.07;;;;;;;;;;4397941;32;20375;-60
2021/01/25 13:17:37;;;;;;;13.10;5.23;;;;;;;;;;4398196;32;20265;-59
2021/01/25 13:20:05;;;;;;;13.80;5.37;;;;;;;;;;4401341;32;20689;-59
2021/01/25 13:22:31;;;;;;;31.73;16.03;;;;;;;;;;4399353;32;20297;-59
2021/01/25 13:24:56;;;;;;;13.37;6.80;;;;;;;;;;4404032;32;20643;-59
2021/01/25 13:27:22;;;;;;;15.37;7.17;;;;;;;;;;4389380;32;20387;-63
2021/01/25 13:29:48;;;;;;;17.83;9.20;;;;;;;;;;4399696;32;20205;-63
2021/01/25 13:32:13;;;;;;;46.90;21.73;;;;;;;;;;4400440;32;20288;-63
2021/01/25 13:34:39;;;;;;;8.90;6.00;;;;;;;;;;4404112;32;20343;-64
2021/01/25 13:37:05;;;;;;;10.77;5.23;;;;;;;;;;4404757;32;20891;-63
2021/01/25 13:39:32;;;;;;;17.03;9.63;;;;;;;;;;4398322;32;20312;-64
2021/01/25 13:42:00;;;;;;;17.80;7.33;;;;;;;;;;4403096;32;20643;-63
2021/01/25 13:44:26;;;;;;;32.17;11.87;;;;;;;;;;4380237;32;20226;-63
2021/01/25 13:46:51;;;;;;;7.70;5.03;;;;;;;;;;4399087;32;20603;-63
2021/01/25 13:49:17;;;;;;;15.97;6.00;;;;;;;;;;4401205;32;20387;-63
2021/01/25 13:51:43;;;;;;;7.23;3.63;;;;;;;;;;4399739;32;20339;-59
2021/01/25 13:54:09;;;;;;;7.67;3.93;;;;;;;;;;4381506;32;20277;-60
2021/01/25 13:56:35;;;;;;;11.60;4.63;;;;;;;;;;4399273;32;20409;-59
2021/01/25 13:59:00;;;;;;;7.93;4.67;;;;;;;;;;4401189;32;20303;-59
2021/01/25 14:01:26;;;;;;;13.97;5.63;;;;;;;;;;4381165;32;20234;-61
2021/01/25 14:03:51;;;;;;;14.43;5.87;;;;;;;;;;4402002;32;20658;-60
2021/01/25 14:06:17;;;;;;;13.63;6.60;;;;;;;;;;4382008;32;20229;-59
2021/01/25 14:08:42;;;;;;;9.43;5.97;;;;;;;;;;4394747;32;20332;-60
2021/01/25 14:11:08;;;;;;;13.33;5.90;;;;;;;;;;4395575;32;20233;-60
2021/01/25 14:13:33;;;;;;;9.50;5.57;;;;;;;;;;4397375;32;20312;-59
2021/01/25 14:15:59;;;;;;;9.70;5.43;;;;;;;;;;4395615;32;20533;-61
2021/01/25 14:18:27;;;;;;;7.17;3.90;;;;;;;;;;4398985;32;20931;-61
2021/01/25 14:20:53;;;;;;;11.27;5.83;;;;;;;;;;4401485;32;20678;-60
2021/01/25 14:23:19;;;;;;;12.00;6.83;;;;;;;;;;4383603;32;20225;-64
2021/01/25 14:25:44;;;;;;;10.93;7.00;;;;;;;;;;4398714;32;20288;-64
2021/01/25 14:28:10;;;;;;;13.73;5.93;;;;;;;;;;4397994;32;20384;-63
2021/01/25 14:30:49;;;;;;;14.30;6.70;;;;;;;;;;4396536;32;20308;-64
2021/01/25 14:33:15;;;;;;;9.30;5.17;;;;;;;;;;4396953;32;20296;-63